createdAt,value
2018-03-30T08:26:43.962Z,7.07
2018-03-30T08:29:10.735Z,6.63
2018-03-30T08:31:37.525Z,7.43
2018-03-30T08:34:04.279Z,7.23
2018-03-30T08:36:31.866Z,5.90
2018-03-30T08:38:58.650Z,5.83
2018-03-30T08:41:25.566Z,7.07
2018-03-30T08:43:53.022Z,7.50
2018-03-30T08:46:19.796Z,7.53
2018-03-30T08:48:46.586Z,6.23
2018-03-30T08:51:13.363Z,5.83
2018-03-30T08:53:40.607Z,6.80
2018-03-30T08:56:07.434Z,6.90
2018-03-30T08:58:34.180Z,5.90
2018-03-30T09:01:00.930Z,7.50
2018-03-30T09:03:27.703Z,5.27
2018-03-30T09:05:55.183Z,6.03
2018-03-30T09:08:21.967Z,6.47
2018-03-30T09:10:48.834Z,5.10
2018-03-30T09:13:15.981Z,6.57
2018-03-30T09:15:42.795Z,5.80
2018-03-30T09:18:09.550Z,4.77
2018-03-30T09:20:36.287Z,5.37
2018-03-30T09:23:03.038Z,5.40
2018-03-30T09:25:29.795Z,5.83
2018-03-30T09:27:56.575Z,5.20
2018-03-30T09:30:23.342Z,5.73
2018-03-30T09:32:50.106Z,6.23
2018-03-30T09:35:16.862Z,6.53
2018-03-30T09:37:43.629Z,6.10
2018-03-30T09:40:10.423Z,6.77
2018-03-30T09:42:37.171Z,7.20
2018-03-30T09:45:03.940Z,6.50
2018-03-30T09:47:30.710Z,6.07
2018-03-30T09:49:57.489Z,6.27
2018-03-30T09:52:24.290Z,4.67
2018-03-30T09:54:51.067Z,6.80
2018-03-30T09:57:17.874Z,5.80
2018-03-30T09:59:44.842Z,5.87
2018-03-30T10:02:11.595Z,5.67
2018-03-30T10:04:43.936Z,5.70
2018-03-30T10:07:10.700Z,7.40
2018-03-30T10:09:37.457Z,5.70
2018-03-30T10:12:04.231Z,6.27
2018-03-30T10:14:31.018Z,6.40
2018-03-30T10:16:57.828Z,6.00
2018-03-30T10:19:24.595Z,6.13
2018-03-30T10:21:51.373Z,6.90
2018-03-30T10:24:18.137Z,5.97
2018-03-30T10:26:44.910Z,7.33
2018-03-30T10:29:11.710Z,6.70
2018-03-30T10:31:38.478Z,6.47
2018-03-30T10:34:05.475Z,3.17
2018-03-30T10:36:32.240Z,5.77
2018-03-30T10:38:59.022Z,5.97
2018-03-30T10:41:25.833Z,6.30
2018-03-30T10:43:52.614Z,6.03
2018-03-30T10:46:19.355Z,6.70
2018-03-30T10:48:46.158Z,6.53
2018-03-30T10:51:12.902Z,6.47
2018-03-30T10:53:39.711Z,6.30
2018-03-30T10:56:06.520Z,6.57
2018-03-30T10:58:33.304Z,6.43
2018-03-30T11:01:00.098Z,6.63
2018-03-30T11:03:26.870Z,5.33
2018-03-30T11:05:54.412Z,6.20
2018-03-30T11:08:21.164Z,7.40
2018-03-30T11:10:47.930Z,7.10
2018-03-30T11:13:14.690Z,6.80
2018-03-30T11:15:41.903Z,6.83
2018-03-30T11:18:08.809Z,7.00
2018-03-30T11:20:36.592Z,7.03
2018-03-30T11:23:03.370Z,7.80
2018-03-30T11:25:30.159Z,7.93
2018-03-30T11:27:56.903Z,7.97
2018-03-30T11:30:23.708Z,7.87
2018-03-30T11:32:50.484Z,7.47
2018-03-30T11:35:17.245Z,6.63
2018-03-30T11:37:44.033Z,6.37
2018-03-30T11:40:10.801Z,6.93
2018-03-30T11:42:37.594Z,8.03
2018-03-30T11:45:04.358Z,6.87
2018-03-30T11:47:31.100Z,7.77
2018-03-30T11:49:57.875Z,7.70
2018-03-30T11:52:24.627Z,8.10
2018-03-30T11:54:51.419Z,8.33
2018-03-30T11:57:18.181Z,8.10
2018-03-30T11:59:44.942Z,8.40
2018-03-30T12:02:11.706Z,8.47
2018-03-30T12:04:38.472Z,8.27
2018-03-30T12:07:05.251Z,6.63
2018-03-30T12:09:32.024Z,7.90
2018-03-30T12:11:58.770Z,8.03
2018-03-30T12:14:25.535Z,7.53
2018-03-30T12:16:52.291Z,6.90
2018-03-30T12:19:19.075Z,8.27
2018-03-30T12:21:46.013Z,8.33
2018-03-30T12:24:12.760Z,8.53
2018-03-30T12:26:39.547Z,8.07
2018-03-30T12:29:06.334Z,7.47
2018-03-30T12:31:33.115Z,7.13
2018-03-30T12:33:59.867Z,8.00
2018-03-30T12:36:26.661Z,7.87
2018-03-30T12:38:53.454Z,8.30
2018-03-30T12:41:20.212Z,7.80
2018-03-30T12:43:47.022Z,6.47
2018-03-30T12:46:13.858Z,8.77
2018-03-30T12:48:41.300Z,8.80
2018-03-30T12:51:08.052Z,6.20
2018-03-30T12:53:34.812Z,7.10
2018-03-30T12:56:01.599Z,6.20
2018-03-30T12:58:28.347Z,6.53
2018-03-30T13:00:55.154Z,6.77
2018-03-30T13:03:22.184Z,7.70
2018-03-30T13:05:48.928Z,7.40
2018-03-30T13:08:15.720Z,7.73
2018-03-30T13:10:42.455Z,6.93
2018-03-30T13:13:09.199Z,6.70
2018-03-30T13:15:35.973Z,6.10
2018-03-30T13:18:02.736Z,6.40
2018-03-30T13:20:29.523Z,6.37
2018-03-30T13:22:56.259Z,6.33
2018-03-30T13:25:23.058Z,5.63
2018-03-30T13:27:49.820Z,6.70
2018-03-30T13:30:16.578Z,4.40
2018-03-30T13:32:43.357Z,3.67
2018-03-30T13:35:10.230Z,6.00
2018-03-30T13:37:36.987Z,5.90
2018-03-30T13:40:03.771Z,6.67
2018-03-30T13:42:30.541Z,6.57
2018-03-30T13:44:57.343Z,5.90
2018-03-30T13:47:24.122Z,6.40
2018-03-30T13:49:50.908Z,5.80
2018-03-30T13:52:18.551Z,5.73
2018-03-30T13:54:45.322Z,5.90
2018-03-30T13:57:12.898Z,5.07
2018-03-30T13:59:39.686Z,5.47
2018-03-30T14:02:07.331Z,5.53
2018-03-30T14:04:44.015Z,6.30
2018-03-30T14:07:10.799Z,5.97
2018-03-30T14:09:38.429Z,5.13
2018-03-30T14:12:06.009Z,5.80
2018-03-30T14:14:32.895Z,5.60
2018-03-30T14:17:03.172Z,6.00
2018-03-30T14:19:30.838Z,6.33
2018-03-30T14:21:59.536Z,7.27
2018-03-30T14:24:26.360Z,6.17
2018-03-30T14:26:54.093Z,7.03
2018-03-30T14:29:31.845Z,6.87
2018-03-30T14:32:03.194Z,6.70
2018-03-30T14:34:33.620Z,7.53
2018-03-30T14:37:10.673Z,8.17
2018-03-30T14:39:38.421Z,8.00
2018-03-30T14:42:05.825Z,6.70
2018-03-30T14:44:35.386Z,7.10
2018-03-30T14:47:05.804Z,6.40
2018-03-30T14:49:33.486Z,7.07
2018-03-30T14:52:11.055Z,8.23
2018-03-30T14:54:39.595Z,7.00
2018-03-30T14:57:06.372Z,7.87
2018-03-30T14:59:33.950Z,6.80
2018-03-30T15:02:03.648Z,6.70
2018-03-30T15:04:31.126Z,7.97
2018-03-30T15:07:00.558Z,7.80
2018-03-30T15:09:31.230Z,6.87
2018-03-30T15:12:01.303Z,6.50
2018-03-30T15:14:31.811Z,6.70
2018-03-30T15:17:17.843Z,7.87
2018-03-30T15:19:59.511Z,7.40
2018-03-30T15:22:31.131Z,7.80
2018-03-30T15:25:04.899Z,7.83
2018-03-30T15:27:41.573Z,8.50
2018-03-30T15:30:23.265Z,5.93
2018-03-30T15:32:50.062Z,7.07
2018-03-30T15:35:16.837Z,6.60
2018-03-30T15:37:43.667Z,9.27
2018-03-30T15:40:21.325Z,7.93
2018-03-30T15:42:48.122Z,8.10
2018-03-30T15:45:16.654Z,8.63
2018-03-30T15:47:43.658Z,6.43
2018-03-30T15:50:11.177Z,8.00
2018-03-30T15:52:37.954Z,8.10
2018-03-30T15:55:04.756Z,7.90
2018-03-30T15:57:31.586Z,8.80
2018-03-30T15:59:58.978Z,8.20
2018-03-30T16:02:26.478Z,9.10
2018-03-30T16:04:53.266Z,8.03
2018-03-30T16:07:20.083Z,6.80
2018-03-30T16:09:52.741Z,10.20
2018-03-30T16:12:22.078Z,8.23
2018-03-30T16:14:48.883Z,10.07
2018-03-30T16:17:15.652Z,8.43
2018-03-30T16:19:42.171Z,7.97
2018-03-30T16:22:08.680Z,7.97
2018-03-30T16:24:35.237Z,7.70
2018-03-30T16:27:01.749Z,7.60
2018-03-30T16:29:28.297Z,9.13
2018-03-30T16:31:54.843Z,8.33
2018-03-30T16:34:21.382Z,9.77
2018-03-30T16:36:47.950Z,9.00
2018-03-30T16:39:14.530Z,9.70
2018-03-30T16:41:41.064Z,9.07
2018-03-30T16:44:07.612Z,10.07
2018-03-30T16:46:34.161Z,10.73
2018-03-30T16:49:00.727Z,9.33
2018-03-30T16:51:27.273Z,8.80
2018-03-30T16:53:53.844Z,9.03
2018-03-30T16:56:20.359Z,10.53
2018-03-30T16:58:46.890Z,7.20
2018-03-30T17:01:13.445Z,9.03
2018-03-30T17:03:40.015Z,7.43
2018-03-30T17:06:06.504Z,8.60
2018-03-30T17:08:33.017Z,9.40
2018-03-30T17:10:59.528Z,8.67
2018-03-30T17:13:26.094Z,9.30
2018-03-30T17:15:52.625Z,8.30
2018-03-30T17:18:19.181Z,8.37
2018-03-30T17:20:45.737Z,9.33
2018-03-30T17:23:12.268Z,8.70
2018-03-30T17:25:38.815Z,8.83
2018-03-30T17:28:05.349Z,6.82
2018-03-30T17:30:31.897Z,7.90
2018-03-30T17:32:58.435Z,7.95
2018-03-30T17:35:24.970Z,7.17
2018-03-30T17:37:51.519Z,7.50
2018-03-30T17:40:18.102Z,7.20
2018-03-30T17:42:44.619Z,7.55
2018-03-30T17:45:11.119Z,6.30
2018-03-30T17:47:37.664Z,7.93
2018-03-30T17:50:04.235Z,7.57
2018-03-30T17:52:30.752Z,7.43
2018-03-30T17:54:57.289Z,6.97
2018-03-30T17:57:23.847Z,6.07
2018-03-30T17:59:50.385Z,6.43
2018-03-30T18:02:16.985Z,8.35
2018-03-30T18:04:43.538Z,7.72
2018-03-30T18:07:10.075Z,7.07
2018-03-30T18:09:36.615Z,6.68
2018-03-30T18:12:03.157Z,6.22
2018-03-30T18:14:29.787Z,7.47
2018-03-30T18:16:56.331Z,7.10
2018-03-30T18:19:22.881Z,6.95
2018-03-30T18:21:49.458Z,6.15
2018-03-30T18:24:16.040Z,6.27
2018-03-30T18:26:42.616Z,4.53
2018-03-30T18:29:09.166Z,5.68
2018-03-30T18:31:35.712Z,5.53
2018-03-30T18:34:02.268Z,6.10
2018-03-30T18:36:28.816Z,5.35
2018-03-30T18:38:55.411Z,6.85
2018-03-30T18:41:22.006Z,5.50
2018-03-30T18:43:48.550Z,5.47
2018-03-30T18:46:15.103Z,6.05
2018-03-30T18:48:41.666Z,5.53
2018-03-30T18:51:08.239Z,6.03
2018-03-30T18:53:34.763Z,5.80
2018-03-30T18:56:01.314Z,6.75
2018-03-30T18:58:27.893Z,6.80
2018-03-30T19:00:54.456Z,4.82
2018-03-30T19:03:21.025Z,6.97
2018-03-30T19:05:47.574Z,5.78
2018-03-30T19:08:14.112Z,6.30
2018-03-30T19:10:40.621Z,7.27
2018-03-30T19:13:07.202Z,7.25
2018-03-30T19:15:33.778Z,7.32
2018-03-30T19:18:00.324Z,6.35
2018-03-30T19:20:26.882Z,6.12
2018-03-30T19:22:53.431Z,6.60
2018-03-30T19:25:19.972Z,7.78
2018-03-30T19:27:46.561Z,8.38
2018-03-30T19:30:13.122Z,7.87
2018-03-30T19:32:39.643Z,10.13
2018-03-30T19:35:06.235Z,8.50
2018-03-30T19:37:32.773Z,7.40
2018-03-30T19:39:59.675Z,7.57
2018-03-30T19:42:26.251Z,8.45
2018-03-30T19:44:52.827Z,7.78
2018-03-30T19:47:19.384Z,7.43
2018-03-30T19:49:45.939Z,9.80
2018-03-30T19:52:12.500Z,7.12
2018-03-30T19:54:39.063Z,8.60
2018-03-30T19:57:05.596Z,9.27
2018-03-30T19:59:32.142Z,8.48
2018-03-30T20:01:58.699Z,8.68
2018-03-30T20:04:25.289Z,11.30
2018-03-30T20:06:51.833Z,10.90
2018-03-30T20:09:18.379Z,10.60
2018-03-30T20:11:45.191Z,9.40
2018-03-30T20:14:11.733Z,10.38
2018-03-30T20:16:38.296Z,8.80
2018-03-30T20:19:04.839Z,9.88
2018-03-30T20:21:31.357Z,9.23
2018-03-30T20:23:57.906Z,8.45
2018-03-30T20:26:24.450Z,8.75
2018-03-30T20:28:51.078Z,8.82
2018-03-30T20:31:17.632Z,7.95
2018-03-30T20:33:44.206Z,8.07
2018-03-30T20:36:10.749Z,7.72
2018-03-30T20:38:37.270Z,6.35
2018-03-30T20:41:03.853Z,8.77
2018-03-30T20:43:30.383Z,6.55
2018-03-30T20:45:56.949Z,7.93
2018-03-30T20:48:23.500Z,7.47
2018-03-30T20:50:50.054Z,6.43
2018-03-30T20:53:16.612Z,7.28
2018-03-30T20:55:43.194Z,8.18
2018-03-30T20:58:09.753Z,5.50
2018-03-30T21:00:36.281Z,6.93
2018-03-30T21:03:02.855Z,8.20
2018-03-30T21:05:29.437Z,8.85
2018-03-30T21:07:55.963Z,6.47
2018-03-30T21:10:22.492Z,6.80
2018-03-30T21:12:49.009Z,5.12
2018-03-30T21:15:15.572Z,5.82
2018-03-30T21:17:42.123Z,5.28
2018-03-30T21:20:08.666Z,5.03
2018-03-30T21:22:35.230Z,6.65
2018-03-30T21:25:01.766Z,6.32
2018-03-30T21:27:28.290Z,5.85
2018-03-30T21:29:54.863Z,4.87
2018-03-30T21:32:21.389Z,5.07
2018-03-30T21:34:47.933Z,6.87
2018-03-30T21:37:14.453Z,6.40
2018-03-30T21:39:41.018Z,7.10
2018-03-30T21:42:07.586Z,7.10
2018-03-30T21:44:34.106Z,6.37
2018-03-30T21:47:00.625Z,5.77
2018-03-30T21:49:27.140Z,5.35
2018-03-30T21:51:53.685Z,3.90
2018-03-30T21:54:20.276Z,5.85
2018-03-30T21:56:46.822Z,4.82
2018-03-30T21:59:13.379Z,5.97
2018-03-30T22:01:39.949Z,3.80
2018-03-30T22:04:06.502Z,5.03
2018-03-30T22:06:33.094Z,6.57
2018-03-30T22:08:59.642Z,5.43
2018-03-30T22:11:26.189Z,5.18
2018-03-30T22:13:52.718Z,5.40
2018-03-30T22:16:19.261Z,4.72
2018-03-30T22:18:45.811Z,4.57
2018-03-30T22:21:12.354Z,4.90
2018-03-30T22:23:38.909Z,5.10
2018-03-30T22:26:05.460Z,5.30
2018-03-30T22:28:32.002Z,4.55
